sensor_id;sensor_type;location;lat;lon;timestamp;P1;durP1;ratioP1;P2;durP2;ratioP2
66185;SDS011;58178;49.552;27.922;2022-08-20T00:02:19;5.10;;;2.60;;
66185;SDS011;58178;49.552;27.922;2022-08-20T00:04:45;7.45;;;3.00;;
66185;SDS011;58178;49.552;27.922;2022-08-20T00:07:11;5.45;;;2.63;;
66185;SDS011;58178;49.552;27.922;2022-08-20T00:09:38;7.18;;;2.72;;
66185;SDS011;58178;49.552;27.922;2022-08-20T00:12:06;8.10;;;3.55;;
66185;SDS011;58178;49.552;27.922;2022-08-20T00:14:33;8.15;;;2.97;;
66185;SDS011;58178;49.552;27.922;2022-08-20T00:16:59;5.18;;;2.90;;
66185;SDS011;58178;49.552;27.922;2022-08-20T00:19:25;5.65;;;3.35;;
66185;SDS011;58178;49.552;27.922;2022-08-20T00:21:51;6.25;;;3.10;;
66185;SDS011;58178;49.552;27.922;2022-08-20T00:24:17;7.63;;;3.50;;
66185;SDS011;58178;49.552;27.922;2022-08-20T00:26:42;7.25;;;4.25;;
66185;SDS011;58178;49.552;27.922;2022-08-20T00:29:08;4.57;;;3.20;;
66185;SDS011;58178;49.552;27.922;2022-08-20T00:31:34;6.38;;;3.65;;
66185;SDS011;58178;49.552;27.922;2022-08-20T00:33:59;4.68;;;3.20;;
66185;SDS011;58178;49.552;27.922;2022-08-20T00:36:25;4.97;;;3.55;;
66185;SDS011;58178;49.552;27.922;2022-08-20T00:38:51;6.95;;;3.58;;
66185;SDS011;58178;49.552;27.922;2022-08-20T00:41:21;10.48;;;3.95;;
66185;SDS011;58178;49.552;27.922;2022-08-20T00:44:09;4.45;;;3.85;;
66185;SDS011;58178;49.552;27.922;2022-08-20T00:46:43;9.27;;;3.53;;
66185;SDS011;58178;49.552;27.922;2022-08-20T00:49:20;4.63;;;3.65;;
66185;SDS011;58178;49.552;27.922;2022-08-20T00:51:58;8.52;;;4.63;;
66185;SDS011;58178;49.552;27.922;2022-08-20T00:54:32;5.70;;;4.18;;
66185;SDS011;58178;49.552;27.922;2022-08-20T00:57:17;9.13;;;3.58;;
66185;SDS011;58178;49.552;27.922;2022-08-20T00:59:49;6.75;;;3.88;;
66185;SDS011;58178;49.552;27.922;2022-08-20T01:02:16;8.82;;;4.97;;
66185;SDS011;58178;49.552;27.922;2022-08-20T01:04:43;6.15;;;4.60;;
66185;SDS011;58178;49.552;27.922;2022-08-20T01:07:19;8.40;;;5.00;;
66185;SDS011;58178;49.552;27.922;2022-08-20T01:09:46;9.88;;;3.92;;
66185;SDS011;58178;49.552;27.922;2022-08-20T01:12:13;10.85;;;4.50;;
66185;SDS011;58178;49.552;27.922;2022-08-20T01:14:40;7.47;;;4.63;;
66185;SDS011;58178;49.552;27.922;2022-08-20T01:17:09;6.78;;;4.50;;
66185;SDS011;58178;49.552;27.922;2022-08-20T01:19:42;7.97;;;4.97;;
66185;SDS011;58178;49.552;27.922;2022-08-20T01:22:11;9.20;;;5.47;;
66185;SDS011;58178;49.552;27.922;2022-08-20T01:25:00;7.93;;;4.30;;
66185;SDS011;58178;49.552;27.922;2022-08-20T01:27:30;5.70;;;4.57;;
66185;SDS011;58178;49.552;27.922;2022-08-20T01:29:57;7.20;;;4.35;;
66185;SDS011;58178;49.552;27.922;2022-08-20T01:32:23;7.57;;;5.20;;
66185;SDS011;58178;49.552;27.922;2022-08-20T01:34:49;6.30;;;4.93;;
66185;SDS011;58178;49.552;27.922;2022-08-20T01:37:14;10.25;;;5.88;;
66185;SDS011;58178;49.552;27.922;2022-08-20T01:39:40;8.00;;;5.47;;
66185;SDS011;58178;49.552;27.922;2022-08-20T01:44:39;6.00;;;4.82;;
66185;SDS011;58178;49.552;27.922;2022-08-20T01:47:08;8.57;;;5.15;;
66185;SDS011;58178;49.552;27.922;2022-08-20T01:49:44;11.55;;;5.65;;
66185;SDS011;58178;49.552;27.922;2022-08-20T01:52:25;10.10;;;5.47;;
66185;SDS011;58178;49.552;27.922;2022-08-20T01:54:53;11.32;;;5.47;;
66185;SDS011;58178;49.552;27.922;2022-08-20T01:57:19;8.05;;;5.93;;
66185;SDS011;58178;49.552;27.922;2022-08-20T01:59:46;9.00;;;5.90;;
66185;SDS011;58178;49.552;27.922;2022-08-20T02:02:12;5.68;;;5.07;;
66185;SDS011;58178;49.552;27.922;2022-08-20T02:04:38;7.38;;;5.13;;
66185;SDS011;58178;49.552;27.922;2022-08-20T02:07:05;8.00;;;5.05;;
66185;SDS011;58178;49.552;27.922;2022-08-20T02:09:34;9.57;;;5.68;;
66185;SDS011;58178;49.552;27.922;2022-08-20T02:12:02;9.80;;;5.65;;
66185;SDS011;58178;49.552;27.922;2022-08-20T02:14:30;7.45;;;5.55;;
66185;SDS011;58178;49.552;27.922;2022-08-20T02:16:56;14.82;;;6.10;;
66185;SDS011;58178;49.552;27.922;2022-08-20T02:21:56;10.23;;;5.40;;
66185;SDS011;58178;49.552;27.922;2022-08-20T02:24:24;7.07;;;5.57;;
66185;SDS011;58178;49.552;27.922;2022-08-20T02:26:50;7.72;;;5.80;;
66185;SDS011;58178;49.552;27.922;2022-08-20T02:29:17;7.60;;;5.97;;
66185;SDS011;58178;49.552;27.922;2022-08-20T02:31:43;8.70;;;6.65;;
66185;SDS011;58178;49.552;27.922;2022-08-20T02:34:09;13.55;;;5.80;;
66185;SDS011;58178;49.552;27.922;2022-08-20T02:36:36;7.03;;;5.60;;
66185;SDS011;58178;49.552;27.922;2022-08-20T02:39:04;7.40;;;5.72;;
66185;SDS011;58178;49.552;27.922;2022-08-20T02:41:32;9.88;;;6.22;;
66185;SDS011;58178;49.552;27.922;2022-08-20T02:43:58;7.28;;;6.00;;
66185;SDS011;58178;49.552;27.922;2022-08-20T02:46:24;8.43;;;5.60;;
66185;SDS011;58178;49.552;27.922;2022-08-20T02:48:52;7.57;;;6.05;;
66185;SDS011;58178;49.552;27.922;2022-08-20T02:51:18;14.48;;;6.65;;
66185;SDS011;58178;49.552;27.922;2022-08-20T02:53:44;11.43;;;5.78;;
66185;SDS011;58178;49.552;27.922;2022-08-20T02:56:10;9.40;;;5.72;;
66185;SDS011;58178;49.552;27.922;2022-08-20T02:58:37;7.78;;;4.85;;
66185;SDS011;58178;49.552;27.922;2022-08-20T03:01:05;8.65;;;5.40;;
66185;SDS011;58178;49.552;27.922;2022-08-20T03:03:32;11.00;;;5.20;;
66185;SDS011;58178;49.552;27.922;2022-08-20T03:05:58;11.07;;;5.28;;
66185;SDS011;58178;49.552;27.922;2022-08-20T03:08:25;11.73;;;5.10;;
66185;SDS011;58178;49.552;27.922;2022-08-20T03:10:53;8.73;;;5.05;;
66185;SDS011;58178;49.552;27.922;2022-08-20T03:13:19;10.38;;;4.78;;
66185;SDS011;58178;49.552;27.922;2022-08-20T03:15:47;9.05;;;4.70;;
66185;SDS011;58178;49.552;27.922;2022-08-20T03:18:15;6.95;;;4.30;;
66185;SDS011;58178;49.552;27.922;2022-08-20T03:20:42;10.52;;;4.80;;
66185;SDS011;58178;49.552;27.922;2022-08-20T03:23:08;8.77;;;4.18;;
66185;SDS011;58178;49.552;27.922;2022-08-20T03:25:34;10.15;;;4.57;;
66185;SDS011;58178;49.552;27.922;2022-08-20T03:28:00;10.43;;;4.40;;
66185;SDS011;58178;49.552;27.922;2022-08-20T03:30:27;12.13;;;3.88;;
66185;SDS011;58178;49.552;27.922;2022-08-20T03:32:53;11.27;;;3.97;;
66185;SDS011;58178;49.552;27.922;2022-08-20T03:35:20;7.65;;;3.78;;
66185;SDS011;58178;49.552;27.922;2022-08-20T03:37:48;8.90;;;3.92;;
66185;SDS011;58178;49.552;27.922;2022-08-20T03:40:16;8.65;;;3.83;;
66185;SDS011;58178;49.552;27.922;2022-08-20T03:42:44;12.23;;;4.00;;
66185;SDS011;58178;49.552;27.922;2022-08-20T03:45:09;12.07;;;3.72;;
66185;SDS011;58178;49.552;27.922;2022-08-20T03:47:38;14.02;;;4.20;;
66185;SDS011;58178;49.552;27.922;2022-08-20T03:50:06;11.27;;;3.90;;
66185;SDS011;58178;49.552;27.922;2022-08-20T03:52:33;13.60;;;4.63;;
66185;SDS011;58178;49.552;27.922;2022-08-20T03:54:59;8.25;;;3.50;;
66185;SDS011;58178;49.552;27.922;2022-08-20T03:57:25;8.85;;;3.53;;
66185;SDS011;58178;49.552;27.922;2022-08-20T03:59:51;11.35;;;3.10;;
66185;SDS011;58178;49.552;27.922;2022-08-20T04:02:17;14.77;;;3.45;;
66185;SDS011;58178;49.552;27.922;2022-08-20T04:04:43;11.57;;;2.97;;
66185;SDS011;58178;49.552;27.922;2022-08-20T04:07:13;10.68;;;3.80;;
66185;SDS011;58178;49.552;27.922;2022-08-20T04:09:53;12.93;;;3.75;;
66185;SDS011;58178;49.552;27.922;2022-08-20T04:12:20;10.82;;;3.28;;
66185;SDS011;58178;49.552;27.922;2022-08-20T04:14:46;7.82;;;3.10;;
66185;SDS011;58178;49.552;27.922;2022-08-20T04:17:12;12.63;;;2.95;;
66185;SDS011;58178;49.552;27.922;2022-08-20T04:19:38;11.30;;;3.28;;
66185;SDS011;58178;49.552;27.922;2022-08-20T04:22:04;10.88;;;3.50;;
66185;SDS011;58178;49.552;27.922;2022-08-20T04:24:32;9.63;;;3.65;;
66185;SDS011;58178;49.552;27.922;2022-08-20T04:26:59;15.38;;;3.05;;
66185;SDS011;58178;49.552;27.922;2022-08-20T04:29:27;10.10;;;3.55;;
66185;SDS011;58178;49.552;27.922;2022-08-20T04:31:53;8.90;;;3.33;;
66185;SDS011;58178;49.552;27.922;2022-08-20T04:34:20;18.10;;;4.35;;
66185;SDS011;58178;49.552;27.922;2022-08-20T04:36:45;11.75;;;4.68;;
66185;SDS011;58178;49.552;27.922;2022-08-20T04:39:12;11.75;;;4.70;;
66185;SDS011;58178;49.552;27.922;2022-08-20T04:41:39;16.52;;;4.38;;
66185;SDS011;58178;49.552;27.922;2022-08-20T04:44:05;16.02;;;4.97;;
66185;SDS011;58178;49.552;27.922;2022-08-20T04:46:31;13.85;;;4.28;;
66185;SDS011;58178;49.552;27.922;2022-08-20T04:48:57;14.48;;;4.80;;
66185;SDS011;58178;49.552;27.922;2022-08-20T04:51:24;13.68;;;5.03;;
66185;SDS011;58178;49.552;27.922;2022-08-20T04:53:51;14.35;;;5.50;;
66185;SDS011;58178;49.552;27.922;2022-08-20T04:56:18;17.98;;;6.60;;
66185;SDS011;58178;49.552;27.922;2022-08-20T04:58:47;13.88;;;5.32;;
66185;SDS011;58178;49.552;27.922;2022-08-20T05:01:15;20.05;;;5.97;;
66185;SDS011;58178;49.552;27.922;2022-08-20T05:03:40;17.00;;;5.80;;
66185;SDS011;58178;49.552;27.922;2022-08-20T05:06:08;20.42;;;6.20;;
66185;SDS011;58178;49.552;27.922;2022-08-20T05:08:35;17.35;;;5.85;;
66185;SDS011;58178;49.552;27.922;2022-08-20T05:11:03;16.90;;;5.68;;
66185;SDS011;58178;49.552;27.922;2022-08-20T05:13:29;16.23;;;5.75;;
66185;SDS011;58178;49.552;27.922;2022-08-20T05:15:55;13.70;;;5.45;;
66185;SDS011;58178;49.552;27.922;2022-08-20T05:18:23;14.90;;;6.15;;
66185;SDS011;58178;49.552;27.922;2022-08-20T05:20:50;20.30;;;6.15;;
66185;SDS011;58178;49.552;27.922;2022-08-20T05:23:17;22.13;;;6.63;;
66185;SDS011;58178;49.552;27.922;2022-08-20T05:25:44;16.20;;;6.30;;
66185;SDS011;58178;49.552;27.922;2022-08-20T05:28:19;15.70;;;5.50;;
66185;SDS011;58178;49.552;27.922;2022-08-20T05:30:47;15.50;;;5.45;;
66185;SDS011;58178;49.552;27.922;2022-08-20T05:33:13;14.88;;;5.30;;
66185;SDS011;58178;49.552;27.922;2022-08-20T05:35:43;20.70;;;6.60;;
66185;SDS011;58178;49.552;27.922;2022-08-20T05:38:12;15.43;;;5.78;;
66185;SDS011;58178;49.552;27.922;2022-08-20T05:40:39;18.83;;;5.63;;
66185;SDS011;58178;49.552;27.922;2022-08-20T05:43:05;16.52;;;4.82;;
66185;SDS011;58178;49.552;27.922;2022-08-20T05:45:32;12.85;;;5.18;;
66185;SDS011;58178;49.552;27.922;2022-08-20T05:48:05;28.52;;;5.95;;
66185;SDS011;58178;49.552;27.922;2022-08-20T05:50:32;15.23;;;4.88;;
66185;SDS011;58178;49.552;27.922;2022-08-20T05:52:59;15.30;;;4.47;;
66185;SDS011;58178;49.552;27.922;2022-08-20T05:55:26;19.85;;;5.22;;
66185;SDS011;58178;49.552;27.922;2022-08-20T05:57:59;18.70;;;4.65;;
66185;SDS011;58178;49.552;27.922;2022-08-20T06:00:26;19.42;;;4.63;;
66185;SDS011;58178;49.552;27.922;2022-08-20T06:02:53;20.42;;;5.20;;
66185;SDS011;58178;49.552;27.922;2022-08-20T06:05:37;22.33;;;5.05;;
66185;SDS011;58178;49.552;27.922;2022-08-20T06:08:07;20.73;;;5.65;;
66185;SDS011;58178;49.552;27.922;2022-08-20T06:10:33;19.40;;;5.88;;
66185;SDS011;58178;49.552;27.922;2022-08-20T06:13:00;22.15;;;6.75;;
66185;SDS011;58178;49.552;27.922;2022-08-20T06:15:27;15.98;;;4.82;;
66185;SDS011;58178;49.552;27.922;2022-08-20T06:17:55;23.90;;;6.50;;
66185;SDS011;58178;49.552;27.922;2022-08-20T06:20:21;28.90;;;6.45;;
66185;SDS011;58178;49.552;27.922;2022-08-20T06:22:47;24.88;;;6.25;;
66185;SDS011;58178;49.552;27.922;2022-08-20T06:25:12;27.60;;;6.78;;
66185;SDS011;58178;49.552;27.922;2022-08-20T06:27:39;31.25;;;6.97;;
66185;SDS011;58178;49.552;27.922;2022-08-20T06:30:07;36.33;;;8.27;;
66185;SDS011;58178;49.552;27.922;2022-08-20T06:32:35;33.35;;;7.72;;
66185;SDS011;58178;49.552;27.922;2022-08-20T06:35:02;33.97;;;6.97;;
66185;SDS011;58178;49.552;27.922;2022-08-20T06:37:30;34.15;;;7.55;;
66185;SDS011;58178;49.552;27.922;2022-08-20T06:40:01;22.52;;;7.57;;
66185;SDS011;58178;49.552;27.922;2022-08-20T06:42:30;29.52;;;9.05;;
66185;SDS011;58178;49.552;27.922;2022-08-20T06:44:56;30.50;;;8.43;;
66185;SDS011;58178;49.552;27.922;2022-08-20T06:47:23;31.30;;;8.50;;
66185;SDS011;58178;49.552;27.922;2022-08-20T06:49:49;28.40;;;7.85;;
66185;SDS011;58178;49.552;27.922;2022-08-20T06:52:15;31.30;;;8.50;;
66185;SDS011;58178;49.552;27.922;2022-08-20T06:54:41;33.28;;;8.23;;
66185;SDS011;58178;49.552;27.922;2022-08-20T06:57:08;33.10;;;8.50;;
66185;SDS011;58178;49.552;27.922;2022-08-20T06:59:33;36.63;;;9.05;;
66185;SDS011;58178;49.552;27.922;2022-08-20T07:02:00;25.63;;;8.38;;
66185;SDS011;58178;49.552;27.922;2022-08-20T07:04:26;34.22;;;10.30;;
66185;SDS011;58178;49.552;27.922;2022-08-20T07:06:52;37.75;;;9.55;;
66185;SDS011;58178;49.552;27.922;2022-08-20T07:09:19;34.13;;;11.00;;
66185;SDS011;58178;49.552;27.922;2022-08-20T07:11:45;34.40;;;9.90;;
66185;SDS011;58178;49.552;27.922;2022-08-20T07:14:12;29.50;;;9.50;;
66185;SDS011;58178;49.552;27.922;2022-08-20T07:16:38;28.58;;;10.45;;
66185;SDS011;58178;49.552;27.922;2022-08-20T07:19:05;32.90;;;10.38;;
66185;SDS011;58178;49.552;27.922;2022-08-20T07:21:30;32.88;;;10.82;;
66185;SDS011;58178;49.552;27.922;2022-08-20T07:23:56;25.20;;;8.38;;
66185;SDS011;58178;49.552;27.922;2022-08-20T07:26:22;31.90;;;9.15;;
66185;SDS011;58178;49.552;27.922;2022-08-20T07:28:48;23.23;;;8.77;;
66185;SDS011;58178;49.552;27.922;2022-08-20T07:31:14;28.95;;;10.30;;
66185;SDS011;58178;49.552;27.922;2022-08-20T07:33:59;25.85;;;9.50;;
66185;SDS011;58178;49.552;27.922;2022-08-20T07:36:25;33.30;;;10.38;;
66185;SDS011;58178;49.552;27.922;2022-08-20T07:38:52;27.77;;;9.90;;
66185;SDS011;58178;49.552;27.922;2022-08-20T07:41:18;33.60;;;10.10;;
66185;SDS011;58178;49.552;27.922;2022-08-20T07:43:44;35.13;;;10.75;;
66185;SDS011;58178;49.552;27.922;2022-08-20T07:46:15;26.45;;;9.70;;
66185;SDS011;58178;49.552;27.922;2022-08-20T07:48:43;32.90;;;10.75;;
66185;SDS011;58178;49.552;27.922;2022-08-20T07:51:11;31.00;;;9.95;;
66185;SDS011;58178;49.552;27.922;2022-08-20T07:53:41;32.45;;;10.68;;
66185;SDS011;58178;49.552;27.922;2022-08-20T07:56:08;31.15;;;10.55;;
66185;SDS011;58178;49.552;27.922;2022-08-20T07:58:36;28.00;;;10.40;;
66185;SDS011;58178;49.552;27.922;2022-08-20T08:01:04;28.80;;;9.93;;
66185;SDS011;58178;49.552;27.922;2022-08-20T08:03:31;31.80;;;10.80;;
66185;SDS011;58178;49.552;27.922;2022-08-20T08:06:01;31.88;;;10.50;;
66185;SDS011;58178;49.552;27.922;2022-08-20T08:08:27;24.30;;;9.13;;
66185;SDS011;58178;49.552;27.922;2022-08-20T08:10:54;25.02;;;9.88;;
66185;SDS011;58178;49.552;27.922;2022-08-20T08:13:22;24.20;;;9.18;;
66185;SDS011;58178;49.552;27.922;2022-08-20T08:15:51;26.58;;;10.25;;
66185;SDS011;58178;49.552;27.922;2022-08-20T08:18:20;23.55;;;9.13;;
66185;SDS011;58178;49.552;27.922;2022-08-20T08:20:48;25.65;;;10.02;;
66185;SDS011;58178;49.552;27.922;2022-08-20T08:23:17;21.77;;;9.77;;
66185;SDS011;58178;49.552;27.922;2022-08-20T08:25:44;23.33;;;9.30;;
66185;SDS011;58178;49.552;27.922;2022-08-20T08:28:11;21.27;;;8.98;;
66185;SDS011;58178;49.552;27.922;2022-08-20T08:30:38;26.73;;;9.20;;
66185;SDS011;58178;49.552;27.922;2022-08-20T08:33:06;22.95;;;8.75;;
66185;SDS011;58178;49.552;27.922;2022-08-20T08:35:51;18.88;;;9.25;;
66185;SDS011;58178;49.552;27.922;2022-08-20T08:38:18;19.15;;;8.40;;
66185;SDS011;58178;49.552;27.922;2022-08-20T08:40:46;22.70;;;9.10;;
66185;SDS011;58178;49.552;27.922;2022-08-20T08:43:15;23.20;;;8.93;;
66185;SDS011;58178;49.552;27.922;2022-08-20T08:45:44;22.70;;;8.02;;
66185;SDS011;58178;49.552;27.922;2022-08-20T08:48:14;21.83;;;8.93;;
66185;SDS011;58178;49.552;27.922;2022-08-20T08:50:43;16.85;;;8.48;;
66185;SDS011;58178;49.552;27.922;2022-08-20T08:53:15;24.58;;;8.10;;
66185;SDS011;58178;49.552;27.922;2022-08-20T08:55:52;18.85;;;7.43;;
66185;SDS011;58178;49.552;27.922;2022-08-20T08:58:18;17.77;;;7.78;;
66185;SDS011;58178;49.552;27.922;2022-08-20T09:00:44;27.38;;;9.77;;
66185;SDS011;58178;49.552;27.922;2022-08-20T09:03:22;25.73;;;9.52;;
66185;SDS011;58178;49.552;27.922;2022-08-20T09:05:54;24.05;;;9.25;;
66185;SDS011;58178;49.552;27.922;2022-08-20T09:08:23;25.25;;;9.00;;
66185;SDS011;58178;49.552;27.922;2022-08-20T09:10:51;19.95;;;7.85;;
66185;SDS011;58178;49.552;27.922;2022-08-20T09:13:17;25.95;;;8.90;;
66185;SDS011;58178;49.552;27.922;2022-08-20T09:15:43;21.77;;;8.45;;
66185;SDS011;58178;49.552;27.922;2022-08-20T09:18:08;20.73;;;8.15;;
66185;SDS011;58178;49.552;27.922;2022-08-20T09:20:34;21.70;;;8.80;;
66185;SDS011;58178;49.552;27.922;2022-08-20T09:23:00;24.58;;;8.40;;
66185;SDS011;58178;49.552;27.922;2022-08-20T09:25:27;25.33;;;9.80;;
66185;SDS011;58178;49.552;27.922;2022-08-20T09:27:53;25.65;;;9.55;;
66185;SDS011;58178;49.552;27.922;2022-08-20T09:30:19;21.25;;;8.25;;
66185;SDS011;58178;49.552;27.922;2022-08-20T09:32:44;18.88;;;8.48;;
66185;SDS011;58178;49.552;27.922;2022-08-20T09:35:10;17.67;;;8.43;;
66185;SDS011;58178;49.552;27.922;2022-08-20T09:37:37;22.58;;;8.45;;
66185;SDS011;58178;49.552;27.922;2022-08-20T09:40:03;21.73;;;8.90;;
66185;SDS011;58178;49.552;27.922;2022-08-20T09:42:32;21.38;;;8.73;;
66185;SDS011;58178;49.552;27.922;2022-08-20T09:44:59;18.45;;;9.05;;
66185;SDS011;58178;49.552;27.922;2022-08-20T09:47:26;19.85;;;8.68;;
66185;SDS011;58178;49.552;27.922;2022-08-20T09:49:52;22.33;;;8.85;;
66185;SDS011;58178;49.552;27.922;2022-08-20T09:52:21;18.65;;;8.32;;
66185;SDS011;58178;49.552;27.922;2022-08-20T09:54:50;17.77;;;7.22;;
66185;SDS011;58178;49.552;27.922;2022-08-20T09:57:18;17.00;;;8.00;;
66185;SDS011;58178;49.552;27.922;2022-08-20T09:59:46;13.50;;;7.72;;
66185;SDS011;58178;49.552;27.922;2022-08-20T10:02:15;23.48;;;8.68;;
66185;SDS011;58178;49.552;27.922;2022-08-20T10:04:41;19.00;;;7.55;;
66185;SDS011;58178;49.552;27.922;2022-08-20T10:07:07;17.05;;;7.45;;
66185;SDS011;58178;49.552;27.922;2022-08-20T10:09:33;16.30;;;7.57;;
66185;SDS011;58178;49.552;27.922;2022-08-20T10:12:00;15.40;;;7.57;;
66185;SDS011;58178;49.552;27.922;2022-08-20T10:14:26;17.75;;;8.25;;
66185;SDS011;58178;49.552;27.922;2022-08-20T10:16:55;16.00;;;7.13;;
66185;SDS011;58178;49.552;27.922;2022-08-20T10:19:25;16.02;;;7.45;;
66185;SDS011;58178;49.552;27.922;2022-08-20T10:21:51;17.48;;;6.90;;
66185;SDS011;58178;49.552;27.922;2022-08-20T10:24:17;17.50;;;8.30;;
66185;SDS011;58178;49.552;27.922;2022-08-20T10:26:44;18.88;;;8.27;;
66185;SDS011;58178;49.552;27.922;2022-08-20T10:29:10;21.27;;;10.55;;
66185;SDS011;58178;49.552;27.922;2022-08-20T10:31:36;17.13;;;8.13;;
66185;SDS011;58178;49.552;27.922;2022-08-20T10:34:01;15.32;;;7.60;;
66185;SDS011;58178;49.552;27.922;2022-08-20T10:36:27;14.48;;;7.20;;
66185;SDS011;58178;49.552;27.922;2022-08-20T10:38:53;16.25;;;7.90;;
66185;SDS011;58178;49.552;27.922;2022-08-20T10:41:18;14.60;;;7.60;;
66185;SDS011;58178;49.552;27.922;2022-08-20T10:43:45;14.25;;;7.57;;
66185;SDS011;58178;49.552;27.922;2022-08-20T10:46:11;19.63;;;7.47;;
66185;SDS011;58178;49.552;27.922;2022-08-20T10:48:36;16.15;;;6.80;;
66185;SDS011;58178;49.552;27.922;2022-08-20T10:51:03;14.10;;;6.40;;
66185;SDS011;58178;49.552;27.922;2022-08-20T10:53:29;15.48;;;6.60;;
66185;SDS011;58178;49.552;27.922;2022-08-20T10:55:55;14.93;;;6.63;;
66185;SDS011;58178;49.552;27.922;2022-08-20T10:58:22;14.57;;;6.18;;
66185;SDS011;58178;49.552;27.922;2022-08-20T11:00:48;15.23;;;7.03;;
66185;SDS011;58178;49.552;27.922;2022-08-20T11:03:14;15.18;;;6.32;;
66185;SDS011;58178;49.552;27.922;2022-08-20T11:05:40;13.15;;;6.15;;
66185;SDS011;58178;49.552;27.922;2022-08-20T11:08:08;16.13;;;6.65;;
66185;SDS011;58178;49.552;27.922;2022-08-20T11:10:35;11.70;;;4.10;;
66185;SDS011;58178;49.552;27.922;2022-08-20T11:13:02;11.77;;;5.53;;
66185;SDS011;58178;49.552;27.922;2022-08-20T11:15:29;10.95;;;4.15;;
66185;SDS011;58178;49.552;27.922;2022-08-20T11:17:56;9.23;;;4.50;;
66185;SDS011;58178;49.552;27.922;2022-08-20T11:20:22;16.13;;;5.07;;
66185;SDS011;58178;49.552;27.922;2022-08-20T11:22:51;14.73;;;4.72;;
66185;SDS011;58178;49.552;27.922;2022-08-20T11:25:18;10.85;;;4.68;;
66185;SDS011;58178;49.552;27.922;2022-08-20T11:27:46;13.30;;;4.90;;
66185;SDS011;58178;49.552;27.922;2022-08-20T11:30:15;16.88;;;5.55;;
66185;SDS011;58178;49.552;27.922;2022-08-20T11:32:43;9.38;;;3.55;;
66185;SDS011;58178;49.552;27.922;2022-08-20T11:35:09;8.27;;;3.47;;
66185;SDS011;58178;49.552;27.922;2022-08-20T11:37:35;12.73;;;4.78;;
66185;SDS011;58178;49.552;27.922;2022-08-20T11:40:01;8.95;;;3.70;;
66185;SDS011;58178;49.552;27.922;2022-08-20T11:42:27;11.40;;;3.15;;
66185;SDS011;58178;49.552;27.922;2022-08-20T11:44:53;11.23;;;3.75;;
66185;SDS011;58178;49.552;27.922;2022-08-20T11:47:22;11.00;;;4.07;;
66185;SDS011;58178;49.552;27.922;2022-08-20T11:50:08;12.98;;;4.07;;
66185;SDS011;58178;49.552;27.922;2022-08-20T11:52:38;12.15;;;4.18;;
66185;SDS011;58178;49.552;27.922;2022-08-20T11:55:05;13.57;;;4.32;;
66185;SDS011;58178;49.552;27.922;2022-08-20T11:57:32;14.75;;;4.13;;
66185;SDS011;58178;49.552;27.922;2022-08-20T12:00:00;10.55;;;3.53;;
66185;SDS011;58178;49.552;27.922;2022-08-20T12:02:28;7.50;;;3.40;;
66185;SDS011;58178;49.552;27.922;2022-08-20T12:04:53;15.10;;;4.15;;
66185;SDS011;58178;49.552;27.922;2022-08-20T12:07:20;8.57;;;2.88;;
66185;SDS011;58178;49.552;27.922;2022-08-20T12:09:50;11.27;;;3.25;;
66185;SDS011;58178;49.552;27.922;2022-08-20T12:12:22;8.40;;;2.90;;
66185;SDS011;58178;49.552;27.922;2022-08-20T12:14:54;6.40;;;2.85;;
66185;SDS011;58178;49.552;27.922;2022-08-20T12:17:27;9.30;;;3.85;;
66185;SDS011;58178;49.552;27.922;2022-08-20T12:19:56;11.55;;;2.72;;
66185;SDS011;58178;49.552;27.922;2022-08-20T12:22:23;11.48;;;2.78;;
66185;SDS011;58178;49.552;27.922;2022-08-20T12:24:50;8.30;;;2.53;;
66185;SDS011;58178;49.552;27.922;2022-08-20T12:27:18;11.32;;;2.60;;
66185;SDS011;58178;49.552;27.922;2022-08-20T12:29:52;9.73;;;2.85;;
66185;SDS011;58178;49.552;27.922;2022-08-20T12:32:20;8.15;;;1.88;;
66185;SDS011;58178;49.552;27.922;2022-08-20T12:34:46;10.40;;;2.15;;
66185;SDS011;58178;49.552;27.922;2022-08-20T12:37:13;4.80;;;1.90;;
66185;SDS011;58178;49.552;27.922;2022-08-20T12:39:43;12.45;;;2.80;;
66185;SDS011;58178;49.552;27.922;2022-08-20T12:42:10;8.40;;;2.30;;
66185;SDS011;58178;49.552;27.922;2022-08-20T12:44:36;6.63;;;2.15;;
66185;SDS011;58178;49.552;27.922;2022-08-20T12:47:12;7.68;;;2.08;;
66185;SDS011;58178;49.552;27.922;2022-08-20T12:49:39;8.52;;;2.08;;
66185;SDS011;58178;49.552;27.922;2022-08-20T12:52:07;8.25;;;2.50;;
66185;SDS011;58178;49.552;27.922;2022-08-20T12:54:34;9.13;;;1.85;;
66185;SDS011;58178;49.552;27.922;2022-08-20T12:57:00;7.40;;;2.50;;
66185;SDS011;58178;49.552;27.922;2022-08-20T12:59:26;7.78;;;2.35;;
66185;SDS011;58178;49.552;27.922;2022-08-20T13:01:52;6.18;;;2.53;;
66185;SDS011;58178;49.552;27.922;2022-08-20T13:04:18;9.50;;;2.13;;
66185;SDS011;58178;49.552;27.922;2022-08-20T13:06:45;8.30;;;1.90;;
66185;SDS011;58178;49.552;27.922;2022-08-20T13:09:11;7.50;;;2.00;;
66185;SDS011;58178;49.552;27.922;2022-08-20T13:11:37;12.00;;;2.00;;
66185;SDS011;58178;49.552;27.922;2022-08-20T13:14:03;6.55;;;1.80;;
66185;SDS011;58178;49.552;27.922;2022-08-20T13:16:29;10.15;;;1.95;;
66185;SDS011;58178;49.552;27.922;2022-08-20T13:18:55;8.65;;;2.20;;
66185;SDS011;58178;49.552;27.922;2022-08-20T13:21:20;10.23;;;1.73;;
66185;SDS011;58178;49.552;27.922;2022-08-20T13:23:46;6.78;;;1.88;;
66185;SDS011;58178;49.552;27.922;2022-08-20T13:26:12;10.00;;;1.95;;
66185;SDS011;58178;49.552;27.922;2022-08-20T13:28:38;8.15;;;2.10;;
66185;SDS011;58178;49.552;27.922;2022-08-20T13:31:04;9.30;;;1.95;;
66185;SDS011;58178;49.552;27.922;2022-08-20T13:33:30;5.13;;;1.50;;
66185;SDS011;58178;49.552;27.922;2022-08-20T13:35:56;9.10;;;1.30;;
66185;SDS011;58178;49.552;27.922;2022-08-20T13:38:22;5.72;;;1.95;;
66185;SDS011;58178;49.552;27.922;2022-08-20T13:40:48;8.10;;;1.60;;
66185;SDS011;58178;49.552;27.922;2022-08-20T13:43:14;10.75;;;2.38;;
66185;SDS011;58178;49.552;27.922;2022-08-20T13:45:40;8.82;;;1.77;;
66185;SDS011;58178;49.552;27.922;2022-08-20T13:48:09;4.93;;;1.50;;
66185;SDS011;58178;49.552;27.922;2022-08-20T13:50:38;8.45;;;1.80;;
66185;SDS011;58178;49.552;27.922;2022-08-20T13:53:04;9.18;;;2.03;;
66185;SDS011;58178;49.552;27.922;2022-08-20T13:55:30;9.65;;;1.70;;
66185;SDS011;58178;49.552;27.922;2022-08-20T13:57:56;10.07;;;2.42;;
66185;SDS011;58178;49.552;27.922;2022-08-20T14:00:23;8.75;;;1.85;;
66185;SDS011;58178;49.552;27.922;2022-08-20T14:02:54;7.13;;;1.85;;
66185;SDS011;58178;49.552;27.922;2022-08-20T14:05:20;11.27;;;2.50;;
66185;SDS011;58178;49.552;27.922;2022-08-20T14:07:47;10.80;;;2.92;;
66185;SDS011;58178;49.552;27.922;2022-08-20T14:10:16;11.93;;;2.28;;
66185;SDS011;58178;49.552;27.922;2022-08-20T14:12:43;9.77;;;1.80;;
66185;SDS011;58178;49.552;27.922;2022-08-20T14:15:09;7.03;;;2.28;;
66185;SDS011;58178;49.552;27.922;2022-08-20T14:17:36;7.95;;;2.20;;
66185;SDS011;58178;49.552;27.922;2022-08-20T14:20:10;8.07;;;1.92;;
66185;SDS011;58178;49.552;27.922;2022-08-20T14:22:38;7.20;;;2.20;;
66185;SDS011;58178;49.552;27.922;2022-08-20T14:25:05;15.02;;;1.85;;
66185;SDS011;58178;49.552;27.922;2022-08-20T14:27:31;7.90;;;2.83;;
66185;SDS011;58178;49.552;27.922;2022-08-20T14:29:58;8.82;;;2.17;;
66185;SDS011;58178;49.552;27.922;2022-08-20T14:32:25;6.80;;;2.13;;
66185;SDS011;58178;49.552;27.922;2022-08-20T14:34:52;8.65;;;1.80;;